sensor_id;sensor_type;location;lat;lon;timestamp;temperature;humidity
54960;DHT22;40860;51.710;8.736;2023-05-29T00:01:25;14.70;91.50
54960;DHT22;40860;51.710;8.736;2023-05-29T00:05:28;14.60;91.40
54960;DHT22;40860;51.710;8.736;2023-05-29T00:09:32;14.50;91.60
54960;DHT22;40860;51.710;8.736;2023-05-29T00:13:35;14.40;91.60
54960;DHT22;40860;51.710;8.736;2023-05-29T00:17:38;14.30;92.00
54960;DHT22;40860;51.710;8.736;2023-05-29T00:21:42;14.20;91.80
54960;DHT22;40860;51.710;8.736;2023-05-29T00:25:46;14.10;92.00
54960;DHT22;40860;51.710;8.736;2023-05-29T00:29:49;14.00;92.40
54960;DHT22;40860;51.710;8.736;2023-05-29T00:33:52;13.90;92.50
54960;DHT22;40860;51.710;8.736;2023-05-29T00:37:55;13.80;92.60
54960;DHT22;40860;51.710;8.736;2023-05-29T00:41:59;13.70;92.90
54960;DHT22;40860;51.710;8.736;2023-05-29T00:46:02;13.70;93.10
54960;DHT22;40860;51.710;8.736;2023-05-29T00:50:06;13.60;93.30
54960;DHT22;40860;51.710;8.736;2023-05-29T00:54:13;13.50;93.50
54960;DHT22;40860;51.710;8.736;2023-05-29T00:58:18;13.50;93.70
54960;DHT22;40860;51.710;8.736;2023-05-29T01:02:23;13.40;93.80
54960;DHT22;40860;51.710;8.736;2023-05-29T01:06:26;13.40;94.30
54960;DHT22;40860;51.710;8.736;2023-05-29T01:10:29;13.30;94.20
54960;DHT22;40860;51.710;8.736;2023-05-29T01:14:45;13.30;94.30
54960;DHT22;40860;51.710;8.736;2023-05-29T01:18:54;13.20;94.60
54960;DHT22;40860;51.710;8.736;2023-05-29T01:23:16;13.10;95.00
54960;DHT22;40860;51.710;8.736;2023-05-29T01:27:27;13.00;95.40
54960;DHT22;40860;51.710;8.736;2023-05-29T01:31:34;12.90;95.70
54960;DHT22;40860;51.710;8.736;2023-05-29T01:35:42;12.80;95.90
54960;DHT22;40860;51.710;8.736;2023-05-29T01:39:45;12.70;96.30
54960;DHT22;40860;51.710;8.736;2023-05-29T01:43:50;12.70;96.40
54960;DHT22;40860;51.710;8.736;2023-05-29T01:47:54;12.60;96.60
54960;DHT22;40860;51.710;8.736;2023-05-29T01:51:58;12.60;96.60
54960;DHT22;40860;51.710;8.736;2023-05-29T01:56:02;12.50;96.90
54960;DHT22;40860;51.710;8.736;2023-05-29T02:00:08;12.40;96.90
54960;DHT22;40860;51.710;8.736;2023-05-29T02:04:18;12.40;97.00
54960;DHT22;40860;51.710;8.736;2023-05-29T02:08:23;12.30;97.10
54960;DHT22;40860;51.710;8.736;2023-05-29T02:12:26;12.20;97.10
54960;DHT22;40860;51.710;8.736;2023-05-29T02:16:30;12.20;97.10
54960;DHT22;40860;51.710;8.736;2023-05-29T02:20:35;12.10;97.00
54960;DHT22;40860;51.710;8.736;2023-05-29T02:24:38;12.10;97.00
54960;DHT22;40860;51.710;8.736;2023-05-29T02:28:41;12.00;96.90
54960;DHT22;40860;51.710;8.736;2023-05-29T02:32:45;12.00;97.00
54960;DHT22;40860;51.710;8.736;2023-05-29T02:36:48;12.00;96.90
54960;DHT22;40860;51.710;8.736;2023-05-29T02:40:51;11.90;96.80
54960;DHT22;40860;51.710;8.736;2023-05-29T02:44:55;11.90;96.60
54960;DHT22;40860;51.710;8.736;2023-05-29T02:49:00;11.70;96.80
54960;DHT22;40860;51.710;8.736;2023-05-29T02:53:03;11.70;96.90
54960;DHT22;40860;51.710;8.736;2023-05-29T02:57:06;11.60;97.10
54960;DHT22;40860;51.710;8.736;2023-05-29T03:01:11;11.50;97.40
54960;DHT22;40860;51.710;8.736;2023-05-29T03:05:15;11.30;97.80
54960;DHT22;40860;51.710;8.736;2023-05-29T03:09:19;11.10;98.00
54960;DHT22;40860;51.710;8.736;2023-05-29T03:13:22;11.10;98.00
54960;DHT22;40860;51.710;8.736;2023-05-29T03:17:31;11.10;98.10
54960;DHT22;40860;51.710;8.736;2023-05-29T03:21:36;11.00;98.10
54960;DHT22;40860;51.710;8.736;2023-05-29T03:25:38;10.90;98.30
54960;DHT22;40860;51.710;8.736;2023-05-29T03:29:42;10.80;98.50
54960;DHT22;40860;51.710;8.736;2023-05-29T03:33:46;10.80;98.50
54960;DHT22;40860;51.710;8.736;2023-05-29T03:37:55;10.70;98.70
54960;DHT22;40860;51.710;8.736;2023-05-29T03:41:58;10.70;98.70
54960;DHT22;40860;51.710;8.736;2023-05-29T03:46:02;10.70;98.60
54960;DHT22;40860;51.710;8.736;2023-05-29T03:50:07;10.60;98.70
54960;DHT22;40860;51.710;8.736;2023-05-29T03:54:13;10.60;98.60
54960;DHT22;40860;51.710;8.736;2023-05-29T03:58:18;10.60;98.80
54960;DHT22;40860;51.710;8.736;2023-05-29T04:02:21;10.60;98.60
54960;DHT22;40860;51.710;8.736;2023-05-29T04:06:24;10.60;98.70
54960;DHT22;40860;51.710;8.736;2023-05-29T04:10:28;10.70;98.60
54960;DHT22;40860;51.710;8.736;2023-05-29T04:14:35;10.70;98.50
54960;DHT22;40860;51.710;8.736;2023-05-29T04:18:38;10.80;98.40
54960;DHT22;40860;51.710;8.736;2023-05-29T04:22:41;10.90;98.30
54960;DHT22;40860;51.710;8.736;2023-05-29T04:26:45;10.90;98.10
54960;DHT22;40860;51.710;8.736;2023-05-29T04:30:48;10.90;98.10
54960;DHT22;40860;51.710;8.736;2023-05-29T04:34:52;11.00;97.80
54960;DHT22;40860;51.710;8.736;2023-05-29T04:38:55;11.10;97.50
54960;DHT22;40860;51.710;8.736;2023-05-29T04:43:01;11.10;97.50
54960;DHT22;40860;51.710;8.736;2023-05-29T04:47:16;11.20;97.30
54960;DHT22;40860;51.710;8.736;2023-05-29T04:51:18;11.20;97.30
54960;DHT22;40860;51.710;8.736;2023-05-29T04:55:23;11.30;97.30
54960;DHT22;40860;51.710;8.736;2023-05-29T04:59:27;11.30;97.00
54960;DHT22;40860;51.710;8.736;2023-05-29T05:03:30;11.40;97.00
54960;DHT22;40860;51.710;8.736;2023-05-29T05:07:35;11.40;96.80
54960;DHT22;40860;51.710;8.736;2023-05-29T05:15:59;11.50;96.80
54960;DHT22;40860;51.710;8.736;2023-05-29T05:20:05;11.50;96.70
54960;DHT22;40860;51.710;8.736;2023-05-29T05:24:10;11.70;96.50
54960;DHT22;40860;51.710;8.736;2023-05-29T05:28:14;11.70;96.20
54960;DHT22;40860;51.710;8.736;2023-05-29T05:32:20;11.80;96.20
54960;DHT22;40860;51.710;8.736;2023-05-29T05:36:30;12.00;96.00
54960;DHT22;40860;51.710;8.736;2023-05-29T05:40:42;12.20;95.80
54960;DHT22;40860;51.710;8.736;2023-05-29T05:44:54;12.30;95.30
54960;DHT22;40860;51.710;8.736;2023-05-29T05:48:58;12.40;95.20
54960;DHT22;40860;51.710;8.736;2023-05-29T05:53:03;12.50;94.80
54960;DHT22;40860;51.710;8.736;2023-05-29T05:57:06;12.60;94.70
54960;DHT22;40860;51.710;8.736;2023-05-29T06:01:11;12.80;94.20
54960;DHT22;40860;51.710;8.736;2023-05-29T06:05:17;12.80;94.10
54960;DHT22;40860;51.710;8.736;2023-05-29T06:09:20;13.00;93.70
54960;DHT22;40860;51.710;8.736;2023-05-29T06:13:27;13.00;93.40
54960;DHT22;40860;51.710;8.736;2023-05-29T06:17:40;13.10;93.60
54960;DHT22;40860;51.710;8.736;2023-05-29T06:21:44;13.10;93.00
54960;DHT22;40860;51.710;8.736;2023-05-29T06:25:47;13.30;93.10
54960;DHT22;40860;51.710;8.736;2023-05-29T06:29:51;13.60;92.80
54960;DHT22;40860;51.710;8.736;2023-05-29T06:33:54;14.20;91.70
54960;DHT22;40860;51.710;8.736;2023-05-29T06:38:00;14.80;90.90
54960;DHT22;40860;51.710;8.736;2023-05-29T06:42:03;14.50;90.00
54960;DHT22;40860;51.710;8.736;2023-05-29T06:46:15;14.20;90.60
54960;DHT22;40860;51.710;8.736;2023-05-29T06:50:19;14.40;90.70
54960;DHT22;40860;51.710;8.736;2023-05-29T06:54:23;14.40;90.50
54960;DHT22;40860;51.710;8.736;2023-05-29T06:58:26;14.60;90.30
54960;DHT22;40860;51.710;8.736;2023-05-29T07:02:30;14.60;90.00
54960;DHT22;40860;51.710;8.736;2023-05-29T07:06:33;14.60;89.90
54960;DHT22;40860;51.710;8.736;2023-05-29T07:10:41;14.50;88.80
54960;DHT22;40860;51.710;8.736;2023-05-29T07:14:45;14.50;88.90
54960;DHT22;40860;51.710;8.736;2023-05-29T07:18:50;14.60;89.30
54960;DHT22;40860;51.710;8.736;2023-05-29T07:22:53;15.00;88.10
54960;DHT22;40860;51.710;8.736;2023-05-29T07:26:58;15.90;84.90
54960;DHT22;40860;51.710;8.736;2023-05-29T07:31:01;18.00;79.40
54960;DHT22;40860;51.710;8.736;2023-05-29T07:35:05;20.00;72.00
54960;DHT22;40860;51.710;8.736;2023-05-29T07:39:08;20.70;64.60
54960;DHT22;40860;51.710;8.736;2023-05-29T07:43:13;21.00;59.80
54960;DHT22;40860;51.710;8.736;2023-05-29T07:47:23;21.10;61.00
54960;DHT22;40860;51.710;8.736;2023-05-29T07:51:26;21.40;58.40
54960;DHT22;40860;51.710;8.736;2023-05-29T07:55:29;22.10;56.60
54960;DHT22;40860;51.710;8.736;2023-05-29T07:59:34;21.90;57.20
54960;DHT22;40860;51.710;8.736;2023-05-29T08:03:36;21.60;56.00
54960;DHT22;40860;51.710;8.736;2023-05-29T08:07:57;21.10;58.30
54960;DHT22;40860;51.710;8.736;2023-05-29T08:12:02;20.80;57.40
54960;DHT22;40860;51.710;8.736;2023-05-29T08:16:07;20.00;59.10
54960;DHT22;40860;51.710;8.736;2023-05-29T08:20:10;20.30;60.20
54960;DHT22;40860;51.710;8.736;2023-05-29T08:24:13;19.90;60.70
54960;DHT22;40860;51.710;8.736;2023-05-29T08:28:17;19.90;60.00
54960;DHT22;40860;51.710;8.736;2023-05-29T08:32:21;19.60;60.30
54960;DHT22;40860;51.710;8.736;2023-05-29T08:36:25;20.10;60.80
54960;DHT22;40860;51.710;8.736;2023-05-29T08:40:28;19.90;59.80
54960;DHT22;40860;51.710;8.736;2023-05-29T08:44:31;20.00;62.30
54960;DHT22;40860;51.710;8.736;2023-05-29T08:48:39;20.40;60.60
54960;DHT22;40860;51.710;8.736;2023-05-29T08:52:46;20.30;61.70
54960;DHT22;40860;51.710;8.736;2023-05-29T08:56:49;20.00;60.20
54960;DHT22;40860;51.710;8.736;2023-05-29T09:00:53;19.70;61.00
54960;DHT22;40860;51.710;8.736;2023-05-29T09:04:58;19.40;61.80
54960;DHT22;40860;51.710;8.736;2023-05-29T09:09:01;19.40;62.00
54960;DHT22;40860;51.710;8.736;2023-05-29T09:13:05;19.90;62.80
54960;DHT22;40860;51.710;8.736;2023-05-29T09:17:09;19.80;63.40
54960;DHT22;40860;51.710;8.736;2023-05-29T09:21:26;19.90;63.70
54960;DHT22;40860;51.710;8.736;2023-05-29T09:25:32;20.20;63.50
54960;DHT22;40860;51.710;8.736;2023-05-29T09:29:38;20.40;63.70
54960;DHT22;40860;51.710;8.736;2023-05-29T09:33:47;20.50;60.20
54960;DHT22;40860;51.710;8.736;2023-05-29T09:37:52;20.30;60.60
54960;DHT22;40860;51.710;8.736;2023-05-29T09:41:55;20.20;60.20
54960;DHT22;40860;51.710;8.736;2023-05-29T09:45:58;20.20;59.70
54960;DHT22;40860;51.710;8.736;2023-05-29T09:50:01;20.20;61.00
54960;DHT22;40860;51.710;8.736;2023-05-29T09:54:17;20.40;60.80
54960;DHT22;40860;51.710;8.736;2023-05-29T09:58:21;20.90;60.30
54960;DHT22;40860;51.710;8.736;2023-05-29T10:02:29;20.80;58.90
54960;DHT22;40860;51.710;8.736;2023-05-29T10:06:35;20.80;59.40
54960;DHT22;40860;51.710;8.736;2023-05-29T10:10:43;20.80;59.60
54960;DHT22;40860;51.710;8.736;2023-05-29T10:14:48;21.10;59.90
54960;DHT22;40860;51.710;8.736;2023-05-29T10:18:54;21.10;57.50
54960;DHT22;40860;51.710;8.736;2023-05-29T10:23:00;21.10;58.20
54960;DHT22;40860;51.710;8.736;2023-05-29T10:27:06;21.00;58.30
54960;DHT22;40860;51.710;8.736;2023-05-29T10:31:10;21.30;58.60
54960;DHT22;40860;51.710;8.736;2023-05-29T10:35:20;21.10;57.40
54960;DHT22;40860;51.710;8.736;2023-05-29T10:39:25;21.20;59.40
54960;DHT22;40860;51.710;8.736;2023-05-29T10:43:34;21.30;57.90
54960;DHT22;40860;51.710;8.736;2023-05-29T10:47:39;21.40;56.90
54960;DHT22;40860;51.710;8.736;2023-05-29T10:51:45;21.40;58.60
54960;DHT22;40860;51.710;8.736;2023-05-29T10:55:50;21.70;57.10
54960;DHT22;40860;51.710;8.736;2023-05-29T11:00:05;21.50;57.00
54960;DHT22;40860;51.710;8.736;2023-05-29T11:04:34;21.30;57.10
54960;DHT22;40860;51.710;8.736;2023-05-29T11:08:44;21.30;57.20
54960;DHT22;40860;51.710;8.736;2023-05-29T11:12:57;21.20;57.00
54960;DHT22;40860;51.710;8.736;2023-05-29T11:17:05;21.00;56.90
54960;DHT22;40860;51.710;8.736;2023-05-29T11:21:21;21.20;57.40
54960;DHT22;40860;51.710;8.736;2023-05-29T11:25:28;21.50;56.80
54960;DHT22;40860;51.710;8.736;2023-05-29T11:29:31;21.70;56.30
54960;DHT22;40860;51.710;8.736;2023-05-29T11:33:40;21.80;55.60
54960;DHT22;40860;51.710;8.736;2023-05-29T11:37:44;21.90;55.70
54960;DHT22;40860;51.710;8.736;2023-05-29T11:41:50;21.90;55.50
54960;DHT22;40860;51.710;8.736;2023-05-29T11:45:54;21.90;55.20
54960;DHT22;40860;51.710;8.736;2023-05-29T11:49:59;21.70;54.60
54960;DHT22;40860;51.710;8.736;2023-05-29T11:54:04;21.80;55.40
54960;DHT22;40860;51.710;8.736;2023-05-29T11:58:08;22.10;54.40
54960;DHT22;40860;51.710;8.736;2023-05-29T12:02:12;22.10;54.10
54960;DHT22;40860;51.710;8.736;2023-05-29T12:06:30;22.10;54.00
54960;DHT22;40860;51.710;8.736;2023-05-29T12:10:36;22.30;53.80
54960;DHT22;40860;51.710;8.736;2023-05-29T12:14:39;22.60;53.50
54960;DHT22;40860;51.710;8.736;2023-05-29T12:18:41;22.70;52.40
54960;DHT22;40860;51.710;8.736;2023-05-29T12:22:46;22.50;52.50
54960;DHT22;40860;51.710;8.736;2023-05-29T12:26:49;22.50;52.50
54960;DHT22;40860;51.710;8.736;2023-05-29T12:30:58;22.50;52.80
54960;DHT22;40860;51.710;8.736;2023-05-29T12:35:09;22.20;52.70
54960;DHT22;40860;51.710;8.736;2023-05-29T12:39:14;22.20;52.50
54960;DHT22;40860;51.710;8.736;2023-05-29T12:43:19;22.20;52.80
54960;DHT22;40860;51.710;8.736;2023-05-29T12:47:28;22.20;53.00
54960;DHT22;40860;51.710;8.736;2023-05-29T12:51:34;22.50;52.00
54960;DHT22;40860;51.710;8.736;2023-05-29T12:55:40;22.40;51.40
54960;DHT22;40860;51.710;8.736;2023-05-29T12:59:44;22.30;52.70
54960;DHT22;40860;51.710;8.736;2023-05-29T13:03:49;22.10;52.00
54960;DHT22;40860;51.710;8.736;2023-05-29T13:07:53;22.10;52.70
54960;DHT22;40860;51.710;8.736;2023-05-29T13:11:58;21.90;52.50
54960;DHT22;40860;51.710;8.736;2023-05-29T13:16:03;21.80;52.50
54960;DHT22;40860;51.710;8.736;2023-05-29T13:20:08;22.10;52.50
54960;DHT22;40860;51.710;8.736;2023-05-29T13:24:11;22.20;52.10
54960;DHT22;40860;51.710;8.736;2023-05-29T13:28:16;22.30;52.10
54960;DHT22;40860;51.710;8.736;2023-05-29T13:32:21;22.10;51.50
54960;DHT22;40860;51.710;8.736;2023-05-29T13:36:25;22.50;51.90
54960;DHT22;40860;51.710;8.736;2023-05-29T13:40:28;22.70;50.60
54960;DHT22;40860;51.710;8.736;2023-05-29T13:44:35;22.60;50.70
54960;DHT22;40860;51.710;8.736;2023-05-29T13:48:38;22.70;51.10
54960;DHT22;40860;51.710;8.736;2023-05-29T13:52:41;22.90;51.10
54960;DHT22;40860;51.710;8.736;2023-05-29T13:56:45;23.20;50.60
54960;DHT22;40860;51.710;8.736;2023-05-29T14:00:49;23.30;49.70
54960;DHT22;40860;51.710;8.736;2023-05-29T14:04:52;23.30;49.20
54960;DHT22;40860;51.710;8.736;2023-05-29T14:08:55;23.10;49.30
54960;DHT22;40860;51.710;8.736;2023-05-29T14:12:58;23.10;49.90
54960;DHT22;40860;51.710;8.736;2023-05-29T14:17:03;23.10;49.80
54960;DHT22;40860;51.710;8.736;2023-05-29T14:21:06;23.60;50.00
54960;DHT22;40860;51.710;8.736;2023-05-29T14:25:09;23.70;48.90
54960;DHT22;40860;51.710;8.736;2023-05-29T14:29:13;23.60;48.90
54960;DHT22;40860;51.710;8.736;2023-05-29T14:33:18;23.80;49.30
54960;DHT22;40860;51.710;8.736;2023-05-29T14:37:21;24.30;48.10
54960;DHT22;40860;51.710;8.736;2023-05-29T14:41:24;24.40;48.10
54960;DHT22;40860;51.710;8.736;2023-05-29T14:45:27;23.50;48.80
54960;DHT22;40860;51.710;8.736;2023-05-29T14:49:31;22.80;49.20
54960;DHT22;40860;51.710;8.736;2023-05-29T14:53:35;22.50;49.40
54960;DHT22;40860;51.710;8.736;2023-05-29T14:57:39;22.10;50.00
54960;DHT22;40860;51.710;8.736;2023-05-29T15:01:42;22.20;50.90
54960;DHT22;40860;51.710;8.736;2023-05-29T15:05:47;22.70;50.30
54960;DHT22;40860;51.710;8.736;2023-05-29T15:09:50;22.90;49.10
54960;DHT22;40860;51.710;8.736;2023-05-29T15:13:53;23.00;48.50
54960;DHT22;40860;51.710;8.736;2023-05-29T15:17:56;22.80;48.80
54960;DHT22;40860;51.710;8.736;2023-05-29T15:22:01;22.50;49.10
54960;DHT22;40860;51.710;8.736;2023-05-29T15:26:04;22.40;49.30
54960;DHT22;40860;51.710;8.736;2023-05-29T15:30:08;22.40;49.60
54960;DHT22;40860;51.710;8.736;2023-05-29T15:34:12;22.70;49.20
54960;DHT22;40860;51.710;8.736;2023-05-29T15:38:16;23.10;48.30
54960;DHT22;40860;51.710;8.736;2023-05-29T15:42:20;22.90;48.20
54960;DHT22;40860;51.710;8.736;2023-05-29T15:46:40;22.60;48.50
54960;DHT22;40860;51.710;8.736;2023-05-29T15:50:43;22.70;48.20
54960;DHT22;40860;51.710;8.736;2023-05-29T15:54:49;22.70;48.20
54960;DHT22;40860;51.710;8.736;2023-05-29T15:59:09;22.70;47.90
54960;DHT22;40860;51.710;8.736;2023-05-29T16:03:20;22.80;47.40
54960;DHT22;40860;51.710;8.736;2023-05-29T16:07:24;22.90;46.70
54960;DHT22;40860;51.710;8.736;2023-05-29T16:11:29;22.80;47.10
54960;DHT22;40860;51.710;8.736;2023-05-29T16:15:33;23.00;46.70
54960;DHT22;40860;51.710;8.736;2023-05-29T16:19:36;23.00;45.70
54960;DHT22;40860;51.710;8.736;2023-05-29T16:23:39;22.70;45.90
54960;DHT22;40860;51.710;8.736;2023-05-29T16:27:50;22.50;45.90
54960;DHT22;40860;51.710;8.736;2023-05-29T16:31:54;22.30;45.50
54960;DHT22;40860;51.710;8.736;2023-05-29T16:35:57;22.00;45.50
54960;DHT22;40860;51.710;8.736;2023-05-29T16:40:00;22.10;45.20
54960;DHT22;40860;51.710;8.736;2023-05-29T16:44:06;21.90;45.70
54960;DHT22;40860;51.710;8.736;2023-05-29T16:48:09;22.00;45.00
54960;DHT22;40860;51.710;8.736;2023-05-29T16:52:12;22.00;44.40
54960;DHT22;40860;51.710;8.736;2023-05-29T16:56:16;21.70;43.50
54960;DHT22;40860;51.710;8.736;2023-05-29T17:00:21;21.20;44.10
54960;DHT22;40860;51.710;8.736;2023-05-29T17:04:27;20.80;44.20
54960;DHT22;40860;51.710;8.736;2023-05-29T17:08:30;20.50;44.50
54960;DHT22;40860;51.710;8.736;2023-05-29T17:12:33;20.40;45.10
54960;DHT22;40860;51.710;8.736;2023-05-29T17:16:37;20.30;45.10
54960;DHT22;40860;51.710;8.736;2023-05-29T17:20:40;20.00;45.00
54960;DHT22;40860;51.710;8.736;2023-05-29T17:24:43;19.80;45.10
54960;DHT22;40860;51.710;8.736;2023-05-29T17:28:46;19.80;45.20
54960;DHT22;40860;51.710;8.736;2023-05-29T17:32:52;19.50;44.70
54960;DHT22;40860;51.710;8.736;2023-05-29T17:36:55;19.50;45.10
54960;DHT22;40860;51.710;8.736;2023-05-29T17:41:01;19.40;46.20
54960;DHT22;40860;51.710;8.736;2023-05-29T17:45:07;19.20;46.50
54960;DHT22;40860;51.710;8.736;2023-05-29T17:49:11;19.20;47.00
54960;DHT22;40860;51.710;8.736;2023-05-29T17:53:17;19.00;47.40
54960;DHT22;40860;51.710;8.736;2023-05-29T17:57:20;19.00;47.70
54960;DHT22;40860;51.710;8.736;2023-05-29T18:01:26;18.80;47.70
54960;DHT22;40860;51.710;8.736;2023-05-29T18:05:31;18.80;48.10
54960;DHT22;40860;51.710;8.736;2023-05-29T18:09:34;18.60;48.50
54960;DHT22;40860;51.710;8.736;2023-05-29T18:13:37;18.60;49.30
54960;DHT22;40860;51.710;8.736;2023-05-29T18:17:41;18.40;49.60
54960;DHT22;40860;51.710;8.736;2023-05-29T18:21:50;18.30;49.80
54960;DHT22;40860;51.710;8.736;2023-05-29T18:25:53;18.20;50.00
54960;DHT22;40860;51.710;8.736;2023-05-29T18:29:56;18.00;50.30
54960;DHT22;40860;51.710;8.736;2023-05-29T18:34:04;17.90;50.50
54960;DHT22;40860;51.710;8.736;2023-05-29T18:38:10;17.80;50.70
54960;DHT22;40860;51.710;8.736;2023-05-29T18:42:15;17.70;51.10
54960;DHT22;40860;51.710;8.736;2023-05-29T18:50:23;17.50;51.10
54960;DHT22;40860;51.710;8.736;2023-05-29T18:54:34;17.40;52.00
54960;DHT22;40860;51.710;8.736;2023-05-29T18:58:38;17.30;52.10
54960;DHT22;40860;51.710;8.736;2023-05-29T19:02:49;17.20;52.30
54960;DHT22;40860;51.710;8.736;2023-05-29T19:06:54;17.10;52.70
54960;DHT22;40860;51.710;8.736;2023-05-29T19:11:02;17.00;53.00
54960;DHT22;40860;51.710;8.736;2023-05-29T19:15:06;16.90;53.40
54960;DHT22;40860;51.710;8.736;2023-05-29T19:19:12;16.80;53.30
54960;DHT22;40860;51.710;8.736;2023-05-29T19:23:17;16.70;53.70
54960;DHT22;40860;51.710;8.736;2023-05-29T19:27:22;16.50;53.50
54960;DHT22;40860;51.710;8.736;2023-05-29T19:31:28;16.50;54.10
54960;DHT22;40860;51.710;8.736;2023-05-29T19:35:35;16.30;54.20
54960;DHT22;40860;51.710;8.736;2023-05-29T19:39:44;16.20;54.40
54960;DHT22;40860;51.710;8.736;2023-05-29T19:43:49;16.20;54.60
54960;DHT22;40860;51.710;8.736;2023-05-29T19:48:17;16.00;55.00
54960;DHT22;40860;51.710;8.736;2023-05-29T19:52:45;15.90;55.00
54960;DHT22;40860;51.710;8.736;2023-05-29T19:57:00;15.90;55.60
54960;DHT22;40860;51.710;8.736;2023-05-29T20:01:25;15.80;55.60
54960;DHT22;40860;51.710;8.736;2023-05-29T20:05:31;15.70;55.80
54960;DHT22;40860;51.710;8.736;2023-05-29T20:09:39;15.60;56.00
54960;DHT22;40860;51.710;8.736;2023-05-29T20:13:44;15.50;56.10
54960;DHT22;40860;51.710;8.736;2023-05-29T20:17:49;15.40;56.20
54960;DHT22;40860;51.710;8.736;2023-05-29T20:30:02;15.20;56.60
54960;DHT22;40860;51.710;8.736;2023-05-29T20:34:07;15.10;57.30
54960;DHT22;40860;51.710;8.736;2023-05-29T20:38:11;15.00;57.50
54960;DHT22;40860;51.710;8.736;2023-05-29T20:42:15;14.90;57.70
54960;DHT22;40860;51.710;8.736;2023-05-29T20:46:18;14.80;58.10
54960;DHT22;40860;51.710;8.736;2023-05-29T20:50:22;14.70;58.30
54960;DHT22;40860;51.710;8.736;2023-05-29T20:54:27;14.60;58.80
54960;DHT22;40860;51.710;8.736;2023-05-29T20:58:31;14.50;58.90
54960;DHT22;40860;51.710;8.736;2023-05-29T21:02:34;14.50;59.40
54960;DHT22;40860;51.710;8.736;2023-05-29T21:06:38;14.40;60.00
54960;DHT22;40860;51.710;8.736;2023-05-29T21:14:46;14.10;59.50
54960;DHT22;40860;51.710;8.736;2023-05-29T21:18:49;14.00;60.40
54960;DHT22;40860;51.710;8.736;2023-05-29T21:22:53;13.80;60.40
54960;DHT22;40860;51.710;8.736;2023-05-29T21:26:56;13.70;60.70
54960;DHT22;40860;51.710;8.736;2023-05-29T21:30:59;13.60;61.00
54960;DHT22;40860;51.710;8.736;2023-05-29T21:35:07;13.60;62.00
54960;DHT22;40860;51.710;8.736;2023-05-29T21:39:11;13.50;61.70
54960;DHT22;40860;51.710;8.736;2023-05-29T21:43:14;13.40;61.70
54960;DHT22;40860;51.710;8.736;2023-05-29T21:47:17;13.40;61.90
54960;DHT22;40860;51.710;8.736;2023-05-29T21:51:20;13.20;61.80
54960;DHT22;40860;51.710;8.736;2023-05-29T21:55:24;13.00;62.40
54960;DHT22;40860;51.710;8.736;2023-05-29T21:59:27;12.90;63.00
54960;DHT22;40860;51.710;8.736;2023-05-29T22:03:29;12.80;63.40
54960;DHT22;40860;51.710;8.736;2023-05-29T22:07:32;12.70;63.90
54960;DHT22;40860;51.710;8.736;2023-05-29T22:11:37;12.50;64.50
54960;DHT22;40860;51.710;8.736;2023-05-29T22:15:40;12.50;65.40
54960;DHT22;40860;51.710;8.736;2023-05-29T22:19:43;12.40;66.50
54960;DHT22;40860;51.710;8.736;2023-05-29T22:23:46;12.20;67.10
54960;DHT22;40860;51.710;8.736;2023-05-29T22:27:52;12.20;67.90
54960;DHT22;40860;51.710;8.736;2023-05-29T22:31:55;12.10;68.70
54960;DHT22;40860;51.710;8.736;2023-05-29T22:35:57;12.00;69.30
54960;DHT22;40860;51.710;8.736;2023-05-29T22:40:00;12.00;69.60
54960;DHT22;40860;51.710;8.736;2023-05-29T22:44:07;11.90;70.30
54960;DHT22;40860;51.710;8.736;2023-05-29T22:48:09;11.80;70.80
54960;DHT22;40860;51.710;8.736;2023-05-29T22:52:12;11.80;71.80
54960;DHT22;40860;51.710;8.736;2023-05-29T22:56:15;11.70;72.30
54960;DHT22;40860;51.710;8.736;2023-05-29T23:00:20;11.60;72.50
54960;DHT22;40860;51.710;8.736;2023-05-29T23:04:22;11.60;73.20
54960;DHT22;40860;51.710;8.736;2023-05-29T23:08:25;11.60;73.30
54960;DHT22;40860;51.710;8.736;2023-05-29T23:12:28;11.50;73.50
54960;DHT22;40860;51.710;8.736;2023-05-29T23:16:33;11.50;74.20
54960;DHT22;40860;51.710;8.736;2023-05-29T23:20:36;11.40;74.70
54960;DHT22;40860;51.710;8.736;2023-05-29T23:24:40;11.30;75.50
54960;DHT22;40860;51.710;8.736;2023-05-29T23:28:42;11.20;76.20
54960;DHT22;40860;51.710;8.736;2023-05-29T23:32:47;11.10;77.20
54960;DHT22;40860;51.710;8.736;2023-05-29T23:36:50;11.10;78.00
54960;DHT22;40860;51.710;8.736;2023-05-29T23:40:53;11.00;79.20
54960;DHT22;40860;51.710;8.736;2023-05-29T23:44:56;11.00;80.40
54960;DHT22;40860;51.710;8.736;2023-05-29T23:49:05;11.00;81.60
54960;DHT22;40860;51.710;8.736;2023-05-29T23:53:08;10.90;82.10
54960;DHT22;40860;51.710;8.736;2023-05-29T23:57:12;10.90;82.90
